sensor_id;sensor_type;location;lat;lon;timestamp;P1;durP1;ratioP1;P2;durP2;ratioP2
44204;SDS011;30163;42.698;23.344;2022-12-07T00:00:49;97.40;;;38.40;;
44204;SDS011;30163;42.698;23.344;2022-12-07T00:03:15;98.97;;;36.72;;
44204;SDS011;30163;42.698;23.344;2022-12-07T00:05:40;81.93;;;35.40;;
44204;SDS011;30163;42.698;23.344;2022-12-07T00:08:05;97.45;;;36.35;;
44204;SDS011;30163;42.698;23.344;2022-12-07T00:10:33;72.10;;;32.22;;
44204;SDS011;30163;42.698;23.344;2022-12-07T00:12:59;82.95;;;33.53;;
44204;SDS011;30163;42.698;23.344;2022-12-07T00:15:24;87.68;;;34.88;;
44204;SDS011;30163;42.698;23.344;2022-12-07T00:17:49;90.28;;;36.28;;
44204;SDS011;30163;42.698;23.344;2022-12-07T00:20:15;87.90;;;33.75;;
44204;SDS011;30163;42.698;23.344;2022-12-07T00:22:40;78.50;;;33.42;;
44204;SDS011;30163;42.698;23.344;2022-12-07T00:25:06;90.25;;;33.97;;
44204;SDS011;30163;42.698;23.344;2022-12-07T00:27:31;80.30;;;33.58;;
44204;SDS011;30163;42.698;23.344;2022-12-07T00:29:57;73.95;;;32.20;;
44204;SDS011;30163;42.698;23.344;2022-12-07T00:32:22;77.03;;;32.35;;
44204;SDS011;30163;42.698;23.344;2022-12-07T00:34:47;89.22;;;34.50;;
44204;SDS011;30163;42.698;23.344;2022-12-07T00:37:13;86.80;;;35.25;;
44204;SDS011;30163;42.698;23.344;2022-12-07T00:39:38;80.07;;;33.88;;
44204;SDS011;30163;42.698;23.344;2022-12-07T00:42:03;85.55;;;34.50;;
44204;SDS011;30163;42.698;23.344;2022-12-07T00:44:29;74.68;;;31.98;;
44204;SDS011;30163;42.698;23.344;2022-12-07T00:46:54;86.82;;;32.80;;
44204;SDS011;30163;42.698;23.344;2022-12-07T00:49:20;84.75;;;32.47;;
44204;SDS011;30163;42.698;23.344;2022-12-07T00:51:48;80.30;;;32.85;;
44204;SDS011;30163;42.698;23.344;2022-12-07T00:54:14;71.18;;;29.98;;
44204;SDS011;30163;42.698;23.344;2022-12-07T00:56:39;78.25;;;29.95;;
44204;SDS011;30163;42.698;23.344;2022-12-07T00:59:04;78.00;;;30.63;;
44204;SDS011;30163;42.698;23.344;2022-12-07T01:01:34;72.32;;;31.05;;
44204;SDS011;30163;42.698;23.344;2022-12-07T01:04:01;80.50;;;31.10;;
44204;SDS011;30163;42.698;23.344;2022-12-07T01:06:27;76.15;;;29.70;;
44204;SDS011;30163;42.698;23.344;2022-12-07T01:08:53;87.78;;;31.58;;
44204;SDS011;30163;42.698;23.344;2022-12-07T01:11:20;74.03;;;32.00;;
44204;SDS011;30163;42.698;23.344;2022-12-07T01:13:49;82.00;;;30.90;;
44204;SDS011;30163;42.698;23.344;2022-12-07T01:16:15;85.85;;;34.47;;
44204;SDS011;30163;42.698;23.344;2022-12-07T01:18:42;87.85;;;35.28;;
44204;SDS011;30163;42.698;23.344;2022-12-07T01:21:19;82.15;;;35.65;;
44204;SDS011;30163;42.698;23.344;2022-12-07T01:23:46;87.90;;;34.85;;
44204;SDS011;30163;42.698;23.344;2022-12-07T01:26:13;81.82;;;34.72;;
44204;SDS011;30163;42.698;23.344;2022-12-07T01:28:43;83.75;;;33.58;;
44204;SDS011;30163;42.698;23.344;2022-12-07T01:31:09;81.70;;;32.90;;
44204;SDS011;30163;42.698;23.344;2022-12-07T01:33:42;83.57;;;31.77;;
44204;SDS011;30163;42.698;23.344;2022-12-07T01:36:13;72.43;;;29.83;;
44204;SDS011;30163;42.698;23.344;2022-12-07T01:38:46;79.55;;;30.48;;
44204;SDS011;30163;42.698;23.344;2022-12-07T01:41:13;77.55;;;31.75;;
44204;SDS011;30163;42.698;23.344;2022-12-07T01:46:45;73.97;;;29.70;;
44204;SDS011;30163;42.698;23.344;2022-12-07T01:49:26;71.60;;;30.48;;
44204;SDS011;30163;42.698;23.344;2022-12-07T01:51:57;77.57;;;31.27;;
44204;SDS011;30163;42.698;23.344;2022-12-07T01:54:26;80.25;;;30.92;;
44204;SDS011;30163;42.698;23.344;2022-12-07T01:56:52;73.45;;;31.10;;
44204;SDS011;30163;42.698;23.344;2022-12-07T01:59:21;91.55;;;33.42;;
44204;SDS011;30163;42.698;23.344;2022-12-07T02:01:49;79.88;;;32.50;;
44204;SDS011;30163;42.698;23.344;2022-12-07T02:04:15;82.00;;;32.55;;
44204;SDS011;30163;42.698;23.344;2022-12-07T02:06:40;77.63;;;30.67;;
44204;SDS011;30163;42.698;23.344;2022-12-07T02:09:06;89.45;;;32.20;;
44204;SDS011;30163;42.698;23.344;2022-12-07T02:11:32;79.22;;;31.65;;
44204;SDS011;30163;42.698;23.344;2022-12-07T02:13:57;76.70;;;32.30;;
44204;SDS011;30163;42.698;23.344;2022-12-07T02:19:21;78.50;;;33.22;;
44204;SDS011;30163;42.698;23.344;2022-12-07T02:22:18;73.45;;;31.50;;
44204;SDS011;30163;42.698;23.344;2022-12-07T02:25:09;74.57;;;30.30;;
44204;SDS011;30163;42.698;23.344;2022-12-07T02:27:50;74.70;;;29.45;;
44204;SDS011;30163;42.698;23.344;2022-12-07T02:30:22;79.57;;;32.22;;
44204;SDS011;30163;42.698;23.344;2022-12-07T02:35:33;79.53;;;30.48;;
44204;SDS011;30163;42.698;23.344;2022-12-07T02:43:43;79.60;;;31.48;;
44204;SDS011;30163;42.698;23.344;2022-12-07T02:46:14;85.88;;;33.55;;
44204;SDS011;30163;42.698;23.344;2022-12-07T02:48:42;85.88;;;33.83;;
44204;SDS011;30163;42.698;23.344;2022-12-07T02:51:08;82.18;;;33.33;;
44204;SDS011;30163;42.698;23.344;2022-12-07T02:53:38;80.40;;;33.30;;
44204;SDS011;30163;42.698;23.344;2022-12-07T03:10:24;76.32;;;32.75;;
44204;SDS011;30163;42.698;23.344;2022-12-07T03:18:15;101.50;;;34.63;;
44204;SDS011;30163;42.698;23.344;2022-12-07T03:20:42;90.35;;;33.85;;
44204;SDS011;30163;42.698;23.344;2022-12-07T03:23:09;92.43;;;35.33;;
44204;SDS011;30163;42.698;23.344;2022-12-07T03:25:37;92.53;;;34.53;;
44204;SDS011;30163;42.698;23.344;2022-12-07T03:28:05;97.07;;;35.20;;
44204;SDS011;30163;42.698;23.344;2022-12-07T03:30:33;87.03;;;35.35;;
44204;SDS011;30163;42.698;23.344;2022-12-07T03:33:10;108.53;;;36.73;;
44204;SDS011;30163;42.698;23.344;2022-12-07T03:38:48;85.65;;;34.83;;
44204;SDS011;30163;42.698;23.344;2022-12-07T03:41:28;81.07;;;36.00;;
44204;SDS011;30163;42.698;23.344;2022-12-07T03:43:55;97.07;;;37.80;;
44204;SDS011;30163;42.698;23.344;2022-12-07T03:46:28;98.40;;;38.25;;
44204;SDS011;30163;42.698;23.344;2022-12-07T03:54:29;89.40;;;35.78;;
44204;SDS011;30163;42.698;23.344;2022-12-07T03:56:59;98.40;;;37.95;;
44204;SDS011;30163;42.698;23.344;2022-12-07T03:59:25;88.45;;;36.55;;
44204;SDS011;30163;42.698;23.344;2022-12-07T04:01:52;108.97;;;39.60;;
44204;SDS011;30163;42.698;23.344;2022-12-07T04:04:21;91.82;;;40.17;;
44204;SDS011;30163;42.698;23.344;2022-12-07T04:06:47;90.45;;;35.75;;
44204;SDS011;30163;42.698;23.344;2022-12-07T04:09:12;108.72;;;35.22;;
44204;SDS011;30163;42.698;23.344;2022-12-07T04:11:39;109.30;;;40.10;;
44204;SDS011;30163;42.698;23.344;2022-12-07T04:14:04;96.32;;;34.30;;
44204;SDS011;30163;42.698;23.344;2022-12-07T04:16:53;93.25;;;35.50;;
44204;SDS011;30163;42.698;23.344;2022-12-07T04:19:23;93.13;;;38.78;;
44204;SDS011;30163;42.698;23.344;2022-12-07T04:21:49;106.30;;;41.08;;
44204;SDS011;30163;42.698;23.344;2022-12-07T04:24:15;99.50;;;41.15;;
44204;SDS011;30163;42.698;23.344;2022-12-07T04:26:41;103.00;;;42.85;;
44204;SDS011;30163;42.698;23.344;2022-12-07T04:29:07;115.85;;;40.00;;
44204;SDS011;30163;42.698;23.344;2022-12-07T04:31:33;119.43;;;39.30;;
44204;SDS011;30163;42.698;23.344;2022-12-07T04:33:59;102.18;;;38.67;;
44204;SDS011;30163;42.698;23.344;2022-12-07T04:36:24;108.28;;;38.35;;
44204;SDS011;30163;42.698;23.344;2022-12-07T04:38:50;106.30;;;38.95;;
44204;SDS011;30163;42.698;23.344;2022-12-07T04:41:18;88.80;;;35.30;;
44204;SDS011;30163;42.698;23.344;2022-12-07T04:43:43;105.00;;;38.20;;
44204;SDS011;30163;42.698;23.344;2022-12-07T04:46:09;120.07;;;43.08;;
44204;SDS011;30163;42.698;23.344;2022-12-07T04:48:34;111.60;;;45.45;;
44204;SDS011;30163;42.698;23.344;2022-12-07T04:50:59;110.28;;;44.55;;
44204;SDS011;30163;42.698;23.344;2022-12-07T04:53:25;100.05;;;38.83;;
44204;SDS011;30163;42.698;23.344;2022-12-07T04:55:50;105.63;;;37.38;;
44204;SDS011;30163;42.698;23.344;2022-12-07T04:58:15;104.40;;;38.92;;
44204;SDS011;30163;42.698;23.344;2022-12-07T05:00:41;109.20;;;39.88;;
44204;SDS011;30163;42.698;23.344;2022-12-07T05:03:06;122.35;;;41.00;;
44204;SDS011;30163;42.698;23.344;2022-12-07T05:05:32;108.57;;;40.88;;
44204;SDS011;30163;42.698;23.344;2022-12-07T05:07:58;112.93;;;42.13;;
44204;SDS011;30163;42.698;23.344;2022-12-07T05:10:23;109.40;;;41.35;;
44204;SDS011;30163;42.698;23.344;2022-12-07T05:12:49;108.20;;;41.55;;
44204;SDS011;30163;42.698;23.344;2022-12-07T05:15:15;106.28;;;39.58;;
44204;SDS011;30163;42.698;23.344;2022-12-07T05:17:40;116.90;;;41.55;;
44204;SDS011;30163;42.698;23.344;2022-12-07T05:20:06;120.80;;;41.05;;
44204;SDS011;30163;42.698;23.344;2022-12-07T05:22:32;103.47;;;38.88;;
44204;SDS011;30163;42.698;23.344;2022-12-07T05:24:57;98.78;;;38.63;;
44204;SDS011;30163;42.698;23.344;2022-12-07T05:27:22;116.90;;;41.75;;
44204;SDS011;30163;42.698;23.344;2022-12-07T05:29:49;105.45;;;38.58;;
44204;SDS011;30163;42.698;23.344;2022-12-07T05:32:15;104.13;;;37.80;;
44204;SDS011;30163;42.698;23.344;2022-12-07T05:34:41;99.32;;;41.15;;
44204;SDS011;30163;42.698;23.344;2022-12-07T05:37:06;97.30;;;36.95;;
44204;SDS011;30163;42.698;23.344;2022-12-07T05:39:31;124.97;;;42.35;;
44204;SDS011;30163;42.698;23.344;2022-12-07T05:41:57;125.60;;;42.67;;
44204;SDS011;30163;42.698;23.344;2022-12-07T05:44:38;134.43;;;47.58;;
44204;SDS011;30163;42.698;23.344;2022-12-07T05:47:04;127.63;;;46.65;;
44204;SDS011;30163;42.698;23.344;2022-12-07T05:49:29;154.35;;;55.92;;
44204;SDS011;30163;42.698;23.344;2022-12-07T05:51:55;172.68;;;78.97;;
44204;SDS011;30163;42.698;23.344;2022-12-07T05:54:20;159.88;;;49.90;;
44204;SDS011;30163;42.698;23.344;2022-12-07T05:56:46;128.05;;;57.85;;
44204;SDS011;30163;42.698;23.344;2022-12-07T05:59:11;144.65;;;61.80;;
44204;SDS011;30163;42.698;23.344;2022-12-07T06:04:20;149.63;;;53.63;;
44204;SDS011;30163;42.698;23.344;2022-12-07T06:06:46;115.72;;;43.30;;
44204;SDS011;30163;42.698;23.344;2022-12-07T06:09:12;114.70;;;47.33;;
44204;SDS011;30163;42.698;23.344;2022-12-07T06:11:38;133.27;;;48.03;;
44204;SDS011;30163;42.698;23.344;2022-12-07T06:14:22;117.10;;;48.83;;
44204;SDS011;30163;42.698;23.344;2022-12-07T06:16:47;163.35;;;67.95;;
44204;SDS011;30163;42.698;23.344;2022-12-07T06:19:13;130.88;;;57.70;;
44204;SDS011;30163;42.698;23.344;2022-12-07T06:21:38;148.10;;;63.92;;
44204;SDS011;30163;42.698;23.344;2022-12-07T06:24:04;136.88;;;61.10;;
44204;SDS011;30163;42.698;23.344;2022-12-07T06:26:30;131.45;;;61.70;;
44204;SDS011;30163;42.698;23.344;2022-12-07T06:28:55;123.60;;;52.80;;
44204;SDS011;30163;42.698;23.344;2022-12-07T06:31:21;132.52;;;55.30;;
44204;SDS011;30163;42.698;23.344;2022-12-07T06:33:46;141.82;;;65.80;;
44204;SDS011;30163;42.698;23.344;2022-12-07T06:36:12;163.60;;;65.65;;
44204;SDS011;30163;42.698;23.344;2022-12-07T06:38:37;157.35;;;67.50;;
44204;SDS011;30163;42.698;23.344;2022-12-07T06:41:02;166.68;;;68.25;;
44204;SDS011;30163;42.698;23.344;2022-12-07T06:43:28;172.23;;;71.53;;
44204;SDS011;30163;42.698;23.344;2022-12-07T06:45:54;164.57;;;67.22;;
44204;SDS011;30163;42.698;23.344;2022-12-07T06:48:19;133.55;;;57.75;;
44204;SDS011;30163;42.698;23.344;2022-12-07T06:50:45;148.20;;;60.22;;
44204;SDS011;30163;42.698;23.344;2022-12-07T06:53:11;173.57;;;64.25;;
44204;SDS011;30163;42.698;23.344;2022-12-07T06:55:37;139.65;;;57.28;;
44204;SDS011;30163;42.698;23.344;2022-12-07T06:58:02;154.50;;;60.72;;
44204;SDS011;30163;42.698;23.344;2022-12-07T07:00:28;155.07;;;61.45;;
44204;SDS011;30163;42.698;23.344;2022-12-07T07:02:54;166.43;;;62.75;;
44204;SDS011;30163;42.698;23.344;2022-12-07T07:05:19;171.18;;;67.47;;
44204;SDS011;30163;42.698;23.344;2022-12-07T07:07:47;197.23;;;70.88;;
44204;SDS011;30163;42.698;23.344;2022-12-07T07:10:13;187.00;;;71.55;;
44204;SDS011;30163;42.698;23.344;2022-12-07T07:12:39;186.38;;;70.45;;
44204;SDS011;30163;42.698;23.344;2022-12-07T07:15:04;151.40;;;63.00;;
44204;SDS011;30163;42.698;23.344;2022-12-07T07:17:30;155.70;;;64.78;;
44204;SDS011;30163;42.698;23.344;2022-12-07T07:19:55;165.23;;;69.20;;
44204;SDS011;30163;42.698;23.344;2022-12-07T07:22:21;181.88;;;77.25;;
44204;SDS011;30163;42.698;23.344;2022-12-07T07:24:46;185.75;;;89.32;;
44204;SDS011;30163;42.698;23.344;2022-12-07T07:27:11;176.48;;;72.85;;
44204;SDS011;30163;42.698;23.344;2022-12-07T07:29:37;171.45;;;80.05;;
44204;SDS011;30163;42.698;23.344;2022-12-07T07:32:02;187.80;;;76.78;;
44204;SDS011;30163;42.698;23.344;2022-12-07T07:34:28;179.57;;;81.38;;
44204;SDS011;30163;42.698;23.344;2022-12-07T07:36:53;160.20;;;63.33;;
44204;SDS011;30163;42.698;23.344;2022-12-07T07:39:18;134.13;;;57.85;;
44204;SDS011;30163;42.698;23.344;2022-12-07T07:41:44;139.40;;;63.20;;
44204;SDS011;30163;42.698;23.344;2022-12-07T07:44:09;161.32;;;69.32;;
44204;SDS011;30163;42.698;23.344;2022-12-07T07:46:35;166.15;;;70.60;;
44204;SDS011;30163;42.698;23.344;2022-12-07T07:49:00;153.55;;;68.50;;
44204;SDS011;30163;42.698;23.344;2022-12-07T07:51:26;135.10;;;60.40;;
44204;SDS011;30163;42.698;23.344;2022-12-07T07:53:51;166.38;;;61.97;;
44204;SDS011;30163;42.698;23.344;2022-12-07T07:56:16;143.48;;;60.80;;
44204;SDS011;30163;42.698;23.344;2022-12-07T07:58:42;122.22;;;53.80;;
44204;SDS011;30163;42.698;23.344;2022-12-07T08:01:07;104.80;;;44.60;;
44204;SDS011;30163;42.698;23.344;2022-12-07T08:03:33;104.63;;;50.42;;
44204;SDS011;30163;42.698;23.344;2022-12-07T08:05:59;126.63;;;54.28;;
44204;SDS011;30163;42.698;23.344;2022-12-07T08:08:24;131.43;;;53.17;;
44204;SDS011;30163;42.698;23.344;2022-12-07T08:10:49;151.95;;;52.97;;
44204;SDS011;30163;42.698;23.344;2022-12-07T08:13:16;131.05;;;52.22;;
44204;SDS011;30163;42.698;23.344;2022-12-07T08:15:45;130.13;;;57.38;;
44204;SDS011;30163;42.698;23.344;2022-12-07T08:18:11;133.95;;;55.05;;
44204;SDS011;30163;42.698;23.344;2022-12-07T08:20:38;134.45;;;53.33;;
44204;SDS011;30163;42.698;23.344;2022-12-07T08:23:04;113.32;;;51.55;;
44204;SDS011;30163;42.698;23.344;2022-12-07T08:25:29;154.82;;;69.28;;
44204;SDS011;30163;42.698;23.344;2022-12-07T08:27:55;191.30;;;78.10;;
44204;SDS011;30163;42.698;23.344;2022-12-07T08:30:21;140.13;;;64.00;;
44204;SDS011;30163;42.698;23.344;2022-12-07T08:32:47;148.82;;;64.45;;
44204;SDS011;30163;42.698;23.344;2022-12-07T08:35:13;143.85;;;64.95;;
44204;SDS011;30163;42.698;23.344;2022-12-07T08:37:39;134.57;;;63.90;;
44204;SDS011;30163;42.698;23.344;2022-12-07T08:40:04;148.23;;;60.60;;
44204;SDS011;30163;42.698;23.344;2022-12-07T08:42:31;136.70;;;58.47;;
44204;SDS011;30163;42.698;23.344;2022-12-07T08:45:12;142.02;;;56.88;;
44204;SDS011;30163;42.698;23.344;2022-12-07T08:47:46;147.43;;;61.53;;
44204;SDS011;30163;42.698;23.344;2022-12-07T08:50:13;148.25;;;62.55;;
44204;SDS011;30163;42.698;23.344;2022-12-07T08:52:39;144.15;;;62.22;;
44204;SDS011;30163;42.698;23.344;2022-12-07T08:55:06;163.77;;;67.03;;
44204;SDS011;30163;42.698;23.344;2022-12-07T08:57:32;156.98;;;63.63;;
44204;SDS011;30163;42.698;23.344;2022-12-07T08:59:58;150.90;;;60.95;;
44204;SDS011;30163;42.698;23.344;2022-12-07T09:02:24;157.20;;;62.15;;
44204;SDS011;30163;42.698;23.344;2022-12-07T09:04:49;146.45;;;65.78;;
44204;SDS011;30163;42.698;23.344;2022-12-07T09:07:14;162.60;;;67.57;;
44204;SDS011;30163;42.698;23.344;2022-12-07T09:09:40;164.50;;;68.03;;
44204;SDS011;30163;42.698;23.344;2022-12-07T09:12:05;166.07;;;66.03;;
44204;SDS011;30163;42.698;23.344;2022-12-07T09:14:31;166.40;;;65.82;;
44204;SDS011;30163;42.698;23.344;2022-12-07T09:17:05;183.18;;;71.78;;
44204;SDS011;30163;42.698;23.344;2022-12-07T09:19:31;157.52;;;67.35;;
44204;SDS011;30163;42.698;23.344;2022-12-07T09:21:56;168.43;;;69.80;;
44204;SDS011;30163;42.698;23.344;2022-12-07T09:24:21;158.18;;;63.50;;
44204;SDS011;30163;42.698;23.344;2022-12-07T09:26:47;161.18;;;59.17;;
44204;SDS011;30163;42.698;23.344;2022-12-07T09:29:13;148.80;;;60.35;;
44204;SDS011;30163;42.698;23.344;2022-12-07T09:31:38;145.55;;;60.13;;
44204;SDS011;30163;42.698;23.344;2022-12-07T09:34:04;142.15;;;58.55;;
44204;SDS011;30163;42.698;23.344;2022-12-07T09:36:30;139.45;;;56.00;;
44204;SDS011;30163;42.698;23.344;2022-12-07T09:38:56;138.18;;;56.00;;
44204;SDS011;30163;42.698;23.344;2022-12-07T09:41:22;132.05;;;54.83;;
44204;SDS011;30163;42.698;23.344;2022-12-07T09:43:49;133.57;;;55.08;;
44204;SDS011;30163;42.698;23.344;2022-12-07T09:46:15;131.15;;;51.00;;
44204;SDS011;30163;42.698;23.344;2022-12-07T09:48:43;132.82;;;52.08;;
44204;SDS011;30163;42.698;23.344;2022-12-07T09:51:22;119.13;;;51.22;;
44204;SDS011;30163;42.698;23.344;2022-12-07T09:53:49;136.85;;;53.83;;
44204;SDS011;30163;42.698;23.344;2022-12-07T09:56:15;154.95;;;58.15;;
44204;SDS011;30163;42.698;23.344;2022-12-07T09:58:41;143.95;;;51.45;;
44204;SDS011;30163;42.698;23.344;2022-12-07T10:03:33;134.95;;;52.78;;
44204;SDS011;30163;42.698;23.344;2022-12-07T10:06:00;133.30;;;53.72;;
44204;SDS011;30163;42.698;23.344;2022-12-07T10:08:26;143.18;;;53.60;;
44204;SDS011;30163;42.698;23.344;2022-12-07T10:10:53;121.50;;;49.08;;
44204;SDS011;30163;42.698;23.344;2022-12-07T10:13:33;113.18;;;48.78;;
44204;SDS011;30163;42.698;23.344;2022-12-07T10:16:00;116.55;;;46.70;;
44204;SDS011;30163;42.698;23.344;2022-12-07T10:18:30;102.35;;;43.00;;
44204;SDS011;30163;42.698;23.344;2022-12-07T10:21:15;101.07;;;42.13;;
44204;SDS011;30163;42.698;23.344;2022-12-07T10:23:43;111.97;;;45.50;;
44204;SDS011;30163;42.698;23.344;2022-12-07T10:26:36;116.88;;;47.03;;
44204;SDS011;30163;42.698;23.344;2022-12-07T10:31:42;104.65;;;41.85;;
44204;SDS011;30163;42.698;23.344;2022-12-07T10:34:25;107.97;;;42.72;;
44204;SDS011;30163;42.698;23.344;2022-12-07T10:36:54;94.35;;;34.45;;
44204;SDS011;30163;42.698;23.344;2022-12-07T10:39:40;83.05;;;36.67;;
44204;SDS011;30163;42.698;23.344;2022-12-07T10:42:09;96.40;;;37.22;;
44204;SDS011;30163;42.698;23.344;2022-12-07T10:44:44;101.38;;;35.67;;
44204;SDS011;30163;42.698;23.344;2022-12-07T11:00:18;72.22;;;30.52;;
44204;SDS011;30163;42.698;23.344;2022-12-07T11:05:26;74.75;;;32.33;;
44204;SDS011;30163;42.698;23.344;2022-12-07T11:10:44;76.28;;;34.67;;
44204;SDS011;30163;42.698;23.344;2022-12-07T11:13:28;89.25;;;35.15;;
44204;SDS011;30163;42.698;23.344;2022-12-07T11:24:45;81.55;;;33.17;;
44204;SDS011;30163;42.698;23.344;2022-12-07T11:27:18;72.75;;;29.98;;
44204;SDS011;30163;42.698;23.344;2022-12-07T11:30:09;91.43;;;31.45;;
44204;SDS011;30163;42.698;23.344;2022-12-07T11:37:44;59.80;;;23.58;;
44204;SDS011;30163;42.698;23.344;2022-12-07T11:40:45;57.22;;;24.58;;
44204;SDS011;30163;42.698;23.344;2022-12-07T11:45:34;59.72;;;24.17;;
44204;SDS011;30163;42.698;23.344;2022-12-07T11:53:19;59.92;;;24.42;;
44204;SDS011;30163;42.698;23.344;2022-12-07T11:58:45;65.93;;;23.75;;
44204;SDS011;30163;42.698;23.344;2022-12-07T12:06:39;59.50;;;23.45;;
44204;SDS011;30163;42.698;23.344;2022-12-07T12:12:36;59.38;;;25.17;;
44204;SDS011;30163;42.698;23.344;2022-12-07T12:20:22;71.28;;;25.67;;
44204;SDS011;30163;42.698;23.344;2022-12-07T12:25:50;55.67;;;24.17;;
44204;SDS011;30163;42.698;23.344;2022-12-07T12:28:26;52.30;;;23.30;;
44204;SDS011;30163;42.698;23.344;2022-12-07T12:33:50;68.40;;;27.58;;
44204;SDS011;30163;42.698;23.344;2022-12-07T12:39:29;59.38;;;25.65;;
44204;SDS011;30163;42.698;23.344;2022-12-07T12:44:46;48.67;;;20.67;;
44204;SDS011;30163;42.698;23.344;2022-12-07T12:57:29;61.78;;;27.15;;
44204;SDS011;30163;42.698;23.344;2022-12-07T13:02:25;57.70;;;25.00;;
44204;SDS011;30163;42.698;23.344;2022-12-07T13:10:29;55.47;;;22.67;;
44204;SDS011;30163;42.698;23.344;2022-12-07T13:13:00;49.63;;;22.13;;
44204;SDS011;30163;42.698;23.344;2022-12-07T13:15:33;61.45;;;23.95;;
44204;SDS011;30163;42.698;23.344;2022-12-07T13:18:03;49.03;;;22.38;;
44204;SDS011;30163;42.698;23.344;2022-12-07T13:20:45;44.50;;;21.27;;
44204;SDS011;30163;42.698;23.344;2022-12-07T13:23:12;73.20;;;22.65;;
44204;SDS011;30163;42.698;23.344;2022-12-07T13:25:44;55.95;;;24.67;;
44204;SDS011;30163;42.698;23.344;2022-12-07T13:28:17;47.40;;;20.08;;
44204;SDS011;30163;42.698;23.344;2022-12-07T13:33:56;50.35;;;21.83;;
44204;SDS011;30163;42.698;23.344;2022-12-07T13:36:23;57.20;;;22.67;;
44204;SDS011;30163;42.698;23.344;2022-12-07T13:38:51;62.13;;;24.40;;
44204;SDS011;30163;42.698;23.344;2022-12-07T13:41:37;53.22;;;23.30;;
44204;SDS011;30163;42.698;23.344;2022-12-07T13:44:16;63.08;;;23.73;;
44204;SDS011;30163;42.698;23.344;2022-12-07T13:52:23;44.42;;;21.42;;
44204;SDS011;30163;42.698;23.344;2022-12-07T13:57:30;52.42;;;22.38;;
44204;SDS011;30163;42.698;23.344;2022-12-07T13:59:58;56.45;;;24.00;;
44204;SDS011;30163;42.698;23.344;2022-12-07T14:07:32;71.60;;;27.17;;
44204;SDS011;30163;42.698;23.344;2022-12-07T14:10:00;94.50;;;30.20;;
44204;SDS011;30163;42.698;23.344;2022-12-07T14:12:28;71.57;;;27.48;;
44204;SDS011;30163;42.698;23.344;2022-12-07T14:14:55;65.38;;;25.48;;
44204;SDS011;30163;42.698;23.344;2022-12-07T14:17:22;54.33;;;24.02;;
44204;SDS011;30163;42.698;23.344;2022-12-07T14:19:51;56.45;;;23.70;;
44204;SDS011;30163;42.698;23.344;2022-12-07T14:25:22;52.42;;;25.27;;
44204;SDS011;30163;42.698;23.344;2022-12-07T14:30:14;67.00;;;25.98;;
44204;SDS011;30163;42.698;23.344;2022-12-07T14:32:42;54.88;;;24.52;;
44204;SDS011;30163;42.698;23.344;2022-12-07T14:35:14;70.40;;;25.27;;
44204;SDS011;30163;42.698;23.344;2022-12-07T14:37:41;58.63;;;26.98;;
44204;SDS011;30163;42.698;23.344;2022-12-07T14:40:13;59.25;;;26.35;;
44204;SDS011;30163;42.698;23.344;2022-12-07T14:42:41;76.87;;;29.17;;
44204;SDS011;30163;42.698;23.344;2022-12-07T14:45:12;62.63;;;27.40;;
44204;SDS011;30163;42.698;23.344;2022-12-07T14:47:39;62.22;;;28.92;;
44204;SDS011;30163;42.698;23.344;2022-12-07T14:50:05;68.38;;;27.77;;
44204;SDS011;30163;42.698;23.344;2022-12-07T14:52:31;65.75;;;26.90;;
44204;SDS011;30163;42.698;23.344;2022-12-07T14:54:56;66.85;;;28.45;;
44204;SDS011;30163;42.698;23.344;2022-12-07T14:57:22;64.43;;;24.67;;
44204;SDS011;30163;42.698;23.344;2022-12-07T14:59:48;78.68;;;24.67;;
44204;SDS011;30163;42.698;23.344;2022-12-07T15:02:13;60.95;;;23.85;;
44204;SDS011;30163;42.698;23.344;2022-12-07T15:04:39;57.67;;;21.55;;
44204;SDS011;30163;42.698;23.344;2022-12-07T15:07:06;59.35;;;23.88;;
44204;SDS011;30163;42.698;23.344;2022-12-07T15:09:35;51.85;;;22.67;;
44204;SDS011;30163;42.698;23.344;2022-12-07T15:12:01;51.40;;;23.10;;
44204;SDS011;30163;42.698;23.344;2022-12-07T15:14:27;93.25;;;29.77;;
44204;SDS011;30163;42.698;23.344;2022-12-07T15:16:52;110.40;;;36.75;;
44204;SDS011;30163;42.698;23.344;2022-12-07T15:19:19;125.55;;;43.00;;
44204;SDS011;30163;42.698;23.344;2022-12-07T15:21:48;98.85;;;39.70;;
44204;SDS011;30163;42.698;23.344;2022-12-07T15:24:13;102.45;;;40.95;;
44204;SDS011;30163;42.698;23.344;2022-12-07T15:26:39;105.82;;;38.10;;
44204;SDS011;30163;42.698;23.344;2022-12-07T15:29:05;110.32;;;38.25;;
44204;SDS011;30163;42.698;23.344;2022-12-07T15:31:31;94.53;;;34.45;;
44204;SDS011;30163;42.698;23.344;2022-12-07T15:33:57;105.72;;;36.75;;
44204;SDS011;30163;42.698;23.344;2022-12-07T15:36:24;95.10;;;38.60;;
44204;SDS011;30163;42.698;23.344;2022-12-07T15:38:51;117.07;;;41.22;;
44204;SDS011;30163;42.698;23.344;2022-12-07T15:41:17;106.05;;;39.83;;
44204;SDS011;30163;42.698;23.344;2022-12-07T15:43:43;100.18;;;40.40;;
44204;SDS011;30163;42.698;23.344;2022-12-07T15:46:32;99.65;;;37.88;;
44204;SDS011;30163;42.698;23.344;2022-12-07T15:49:00;105.10;;;40.58;;
44204;SDS011;30163;42.698;23.344;2022-12-07T15:51:25;105.25;;;38.42;;
44204;SDS011;30163;42.698;23.344;2022-12-07T15:53:51;125.35;;;40.13;;
44204;SDS011;30163;42.698;23.344;2022-12-07T15:56:17;125.80;;;41.50;;
44204;SDS011;30163;42.698;23.344;2022-12-07T15:58:42;95.28;;;39.47;;
44204;SDS011;30163;42.698;23.344;2022-12-07T16:01:18;121.57;;;44.38;;
44204;SDS011;30163;42.698;23.344;2022-12-07T16:03:44;146.02;;;58.38;;
44204;SDS011;30163;42.698;23.344;2022-12-07T16:06:10;121.00;;;46.25;;
44204;SDS011;30163;42.698;23.344;2022-12-07T16:08:35;131.48;;;45.03;;
44204;SDS011;30163;42.698;23.344;2022-12-07T16:11:04;107.35;;;35.65;;
44204;SDS011;30163;42.698;23.344;2022-12-07T16:13:33;106.20;;;35.70;;
44204;SDS011;30163;42.698;23.344;2022-12-07T16:16:01;100.47;;;35.85;;
44204;SDS011;30163;42.698;23.344;2022-12-07T16:18:28;116.25;;;35.97;;
44204;SDS011;30163;42.698;23.344;2022-12-07T16:20:54;139.13;;;42.35;;
44204;SDS011;30163;42.698;23.344;2022-12-07T16:23:19;189.68;;;52.55;;
44204;SDS011;30163;42.698;23.344;2022-12-07T16:25:44;180.13;;;56.05;;
44204;SDS011;30163;42.698;23.344;2022-12-07T16:28:10;180.93;;;59.33;;
44204;SDS011;30163;42.698;23.344;2022-12-07T16:30:35;197.45;;;79.13;;
44204;SDS011;30163;42.698;23.344;2022-12-07T16:33:01;210.80;;;88.15;;
44204;SDS011;30163;42.698;23.344;2022-12-07T16:35:26;215.50;;;84.53;;
44204;SDS011;30163;42.698;23.344;2022-12-07T16:37:52;195.02;;;70.28;;
44204;SDS011;30163;42.698;23.344;2022-12-07T16:40:17;141.85;;;48.85;;
44204;SDS011;30163;42.698;23.344;2022-12-07T16:42:42;148.48;;;57.10;;
44204;SDS011;30163;42.698;23.344;2022-12-07T16:45:08;151.35;;;62.33;;